createdAt,value
2023-11-08T00:01:32.814Z,8.35
2023-11-08T00:04:02.971Z,7.10
2023-11-08T00:06:35.416Z,7.80
2023-11-08T00:09:07.182Z,7.13
2023-11-08T00:11:37.051Z,6.80
2023-11-08T00:14:07.936Z,6.80
2023-11-08T00:16:39.043Z,6.80
2023-11-08T00:19:12.178Z,6.60
2023-11-08T00:21:42.511Z,7.43
2023-11-08T00:24:12.298Z,6.35
2023-11-08T00:26:42.755Z,9.20
2023-11-08T00:29:13.746Z,8.50
2023-11-08T00:31:44.636Z,7.25
2023-11-08T00:34:17.774Z,6.65
2023-11-08T00:36:48.429Z,5.07
2023-11-08T00:39:20.426Z,5.68
2023-11-08T00:41:51.640Z,6.18
2023-11-08T00:44:23.416Z,6.03
2023-11-08T00:46:56.117Z,5.68
2023-11-08T00:49:26.139Z,5.65
2023-11-08T00:52:02.275Z,5.88
2023-11-08T00:54:35.883Z,7.70
2023-11-08T00:57:06.280Z,8.75
2023-11-08T00:59:36.865Z,8.15
2023-11-08T01:02:09.870Z,8.05
2023-11-08T01:04:39.920Z,8.38
2023-11-08T01:07:10.028Z,9.15
2023-11-08T01:09:40.719Z,9.15
2023-11-08T01:12:10.805Z,9.18
2023-11-08T01:14:40.703Z,8.77
2023-11-08T01:17:12.258Z,8.70
2023-11-08T01:19:42.119Z,9.77
2023-11-08T01:22:13.745Z,10.38
2023-11-08T01:24:43.738Z,11.18
2023-11-08T01:27:13.488Z,9.88
2023-11-08T01:29:43.733Z,9.18
2023-11-08T01:32:13.436Z,6.80
2023-11-08T01:34:43.322Z,8.10
2023-11-08T01:37:13.070Z,10.52
2023-11-08T01:39:43.219Z,13.02
2023-11-08T01:42:13.083Z,12.63
2023-11-08T01:44:43.106Z,12.90
2023-11-08T01:47:16.844Z,11.95
2023-11-08T01:49:47.349Z,14.48
2023-11-08T01:52:17.341Z,16.63
2023-11-08T01:54:51.122Z,14.73
2023-11-08T01:57:22.912Z,13.32
2023-11-08T01:59:53.875Z,13.73
2023-11-08T02:02:24.174Z,14.57
2023-11-08T02:04:57.295Z,12.82
2023-11-08T02:07:27.194Z,12.02
2023-11-08T02:09:57.160Z,12.15
2023-11-08T02:12:27.142Z,11.00
2023-11-08T02:15:13.580Z,8.07
2023-11-08T02:17:48.445Z,7.15
2023-11-08T02:20:19.851Z,5.95
2023-11-08T02:22:49.992Z,8.32
2023-11-08T02:25:20.321Z,7.97
2023-11-08T02:27:50.596Z,7.78
2023-11-08T02:30:20.954Z,9.52
2023-11-08T02:32:51.531Z,10.90
2023-11-08T02:35:22.513Z,12.68
2023-11-08T02:37:52.421Z,8.80
2023-11-08T02:40:22.218Z,8.82
2023-11-08T02:42:54.841Z,9.27
2023-11-08T02:45:24.734Z,7.80
2023-11-08T02:47:54.916Z,6.55
2023-11-08T02:50:25.828Z,6.43
2023-11-08T02:53:22.837Z,5.93
2023-11-08T02:55:52.761Z,6.20
2023-11-08T02:58:22.479Z,6.07
2023-11-08T03:00:56.674Z,6.28
2023-11-08T03:03:27.188Z,7.03
2023-11-08T03:05:57.232Z,8.15
2023-11-08T03:08:27.153Z,8.60
2023-11-08T03:10:57.031Z,8.15
2023-11-08T03:13:28.065Z,9.43
2023-11-08T03:15:59.170Z,10.00
2023-11-08T03:18:29.153Z,10.52
2023-11-08T03:20:58.996Z,11.98
2023-11-08T03:23:33.127Z,12.00
2023-11-08T03:26:03.153Z,11.82
2023-11-08T03:28:33.163Z,10.23
2023-11-08T03:31:03.336Z,8.30
2023-11-08T03:33:33.619Z,8.30
2023-11-08T03:36:05.580Z,8.55
2023-11-08T03:38:35.898Z,8.40
2023-11-08T03:41:06.089Z,8.30
2023-11-08T03:43:36.151Z,9.73
2023-11-08T03:46:06.295Z,8.93
2023-11-08T03:48:36.843Z,8.60
2023-11-08T03:51:07.030Z,8.77
2023-11-08T03:53:37.456Z,8.23
2023-11-08T03:56:07.654Z,10.38
2023-11-08T03:58:40.803Z,9.25
2023-11-08T04:01:11.336Z,9.18
2023-11-08T04:03:41.621Z,8.63
2023-11-08T04:06:12.645Z,11.52
2023-11-08T04:08:42.605Z,11.90
2023-11-08T04:11:12.968Z,12.18
2023-11-08T04:13:43.341Z,11.00
2023-11-08T04:16:16.467Z,10.68
2023-11-08T04:18:48.722Z,9.55
2023-11-08T04:21:19.108Z,9.70
2023-11-08T04:23:51.298Z,9.20
2023-11-08T04:26:22.711Z,8.75
2023-11-08T04:28:53.966Z,8.77
2023-11-08T04:31:24.481Z,7.13
2023-11-08T04:33:55.435Z,8.50
2023-11-08T04:36:28.361Z,8.43
2023-11-08T04:39:00.823Z,8.45
2023-11-08T04:41:30.804Z,8.20
2023-11-08T04:44:00.671Z,8.85
2023-11-08T04:46:30.983Z,9.48
2023-11-08T04:49:01.288Z,11.13
2023-11-08T04:51:32.243Z,11.80
2023-11-08T04:54:02.268Z,13.68
2023-11-08T04:56:33.044Z,12.68
2023-11-08T04:59:02.975Z,12.32
2023-11-08T05:01:33.369Z,12.15
2023-11-08T05:04:03.733Z,11.88
2023-11-08T05:06:33.735Z,12.10
2023-11-08T05:09:05.911Z,13.25
2023-11-08T05:11:36.181Z,12.65
2023-11-08T05:14:06.817Z,12.45
2023-11-08T05:16:37.468Z,13.23
2023-11-08T05:19:09.009Z,13.38
2023-11-08T05:21:39.694Z,15.02
2023-11-08T05:24:10.043Z,13.25
2023-11-08T05:26:39.945Z,12.20
2023-11-08T05:29:10.004Z,13.30
2023-11-08T05:31:40.416Z,13.00
2023-11-08T05:34:10.420Z,13.98
2023-11-08T05:36:40.429Z,14.25
2023-11-08T05:39:10.819Z,13.95
2023-11-08T05:41:40.565Z,11.90
2023-11-08T05:44:10.524Z,11.95
2023-11-08T05:46:40.558Z,16.08
2023-11-08T05:49:11.119Z,11.57
2023-11-08T05:51:41.850Z,10.63
2023-11-08T05:54:11.873Z,8.60
2023-11-08T05:56:43.854Z,13.52
2023-11-08T05:59:13.758Z,10.23
2023-11-08T06:01:46.560Z,12.18
2023-11-08T06:04:18.184Z,12.02
2023-11-08T06:06:50.505Z,14.45
2023-11-08T06:09:20.980Z,14.48
2023-11-08T06:11:52.154Z,12.70
2023-11-08T06:14:22.797Z,12.90
2023-11-08T06:16:54.116Z,12.90
2023-11-08T06:19:24.523Z,13.45
2023-11-08T06:21:55.289Z,12.75
2023-11-08T06:24:25.542Z,13.27
2023-11-08T06:26:55.564Z,12.10
2023-11-08T06:29:25.689Z,13.30
2023-11-08T06:31:55.718Z,12.38
2023-11-08T06:34:26.742Z,15.57
2023-11-08T06:36:56.658Z,15.88
2023-11-08T06:39:26.812Z,16.15
2023-11-08T06:41:57.901Z,19.98
2023-11-08T06:44:27.898Z,17.08
2023-11-08T06:46:58.740Z,17.10
2023-11-08T06:49:28.767Z,15.30
2023-11-08T06:51:59.416Z,14.98
2023-11-08T06:54:29.709Z,16.13
2023-11-08T06:57:00.889Z,16.52
2023-11-08T06:59:30.791Z,16.02
2023-11-08T07:02:00.408Z,16.38
2023-11-08T07:04:30.655Z,17.30
2023-11-08T07:07:03.832Z,17.98
2023-11-08T07:09:34.834Z,16.67
2023-11-08T07:12:05.779Z,14.63
2023-11-08T07:14:35.694Z,15.98
2023-11-08T07:17:07.480Z,14.85
2023-11-08T07:19:37.443Z,28.67
2023-11-08T07:22:07.547Z,14.95
2023-11-08T07:24:38.615Z,13.43
2023-11-08T07:27:10.697Z,13.98
2023-11-08T07:29:40.661Z,11.73
2023-11-08T07:32:14.874Z,5.70
2023-11-08T07:34:45.751Z,7.45
2023-11-08T07:37:15.900Z,14.60
2023-11-08T07:39:45.817Z,11.50
2023-11-08T07:42:15.810Z,9.90
2023-11-08T07:44:45.742Z,10.80
2023-11-08T07:47:16.262Z,10.30
2023-11-08T07:49:46.361Z,10.55
2023-11-08T07:52:16.185Z,10.57
2023-11-08T07:54:48.540Z,9.77
2023-11-08T07:57:19.962Z,12.20
2023-11-08T07:59:51.300Z,10.50
2023-11-08T08:02:22.400Z,8.57
2023-11-08T08:04:52.515Z,10.10
2023-11-08T08:07:22.500Z,9.27
2023-11-08T08:09:53.557Z,9.63
2023-11-08T08:12:28.744Z,8.88
2023-11-08T08:15:03.543Z,9.60
2023-11-08T08:17:36.977Z,11.02
2023-11-08T08:20:14.561Z,6.90
2023-11-08T08:22:46.779Z,7.07
2023-11-08T08:25:18.732Z,7.78
2023-11-08T08:27:49.611Z,8.02
2023-11-08T08:30:20.589Z,9.02
2023-11-08T08:32:51.927Z,8.15
2023-11-08T08:35:22.722Z,8.65
2023-11-08T08:37:52.774Z,7.68
2023-11-08T08:40:22.680Z,7.43
2023-11-08T08:42:52.616Z,7.35
2023-11-08T08:45:22.430Z,10.25
2023-11-08T08:47:54.780Z,12.50
2023-11-08T08:50:26.735Z,10.73
2023-11-08T08:52:56.701Z,11.65
2023-11-08T08:55:27.030Z,14.93
2023-11-08T08:57:59.637Z,13.95
2023-11-08T09:00:30.856Z,10.80
2023-11-08T09:03:01.437Z,10.70
2023-11-08T09:05:32.138Z,10.82
2023-11-08T09:08:05.428Z,15.63
2023-11-08T09:10:37.204Z,29.38
2023-11-08T09:13:07.545Z,27.48
2023-11-08T09:15:38.705Z,22.45
2023-11-08T09:18:12.196Z,20.08
2023-11-08T09:20:42.127Z,15.05
2023-11-08T09:23:12.495Z,11.82
2023-11-08T09:25:42.442Z,9.32
2023-11-08T09:28:12.543Z,13.52
2023-11-08T09:30:42.529Z,10.95
2023-11-08T09:33:12.546Z,16.73
2023-11-08T09:35:44.474Z,13.07
2023-11-08T09:38:14.567Z,12.68
2023-11-08T09:40:47.954Z,14.52
2023-11-08T09:43:22.777Z,17.55
2023-11-08T09:45:54.828Z,15.75
2023-11-08T09:48:24.834Z,18.08
2023-11-08T09:50:55.052Z,23.83
2023-11-08T09:53:25.197Z,22.30
2023-11-08T09:56:01.733Z,24.15
2023-11-08T09:58:33.060Z,24.08
2023-11-08T10:01:03.911Z,21.63
2023-11-08T10:03:40.365Z,18.00
2023-11-08T10:06:11.428Z,22.48
2023-11-08T10:08:41.959Z,28.48
2023-11-08T10:11:19.924Z,22.30
2023-11-08T10:13:55.291Z,27.00
2023-11-08T10:16:29.460Z,35.53
2023-11-08T10:19:36.670Z,26.55
2023-11-08T10:21:53.527Z,18.60
2023-11-08T10:24:25.688Z,22.55
2023-11-08T10:26:56.568Z,17.88
2023-11-08T10:29:28.048Z,16.13
2023-11-08T10:31:58.127Z,17.80
2023-11-08T10:34:29.301Z,20.83
2023-11-08T10:37:02.523Z,16.33
2023-11-08T10:39:33.440Z,14.07
2023-11-08T10:42:04.519Z,19.65
2023-11-08T10:44:35.337Z,24.70
2023-11-08T10:47:05.639Z,15.32
2023-11-08T10:49:36.621Z,20.60
2023-11-08T10:52:11.655Z,15.57
2023-11-08T10:54:42.256Z,17.85
2023-11-08T10:57:15.178Z,16.60
2023-11-08T10:59:52.284Z,16.40
2023-11-08T11:02:39.788Z,12.65
2023-11-08T11:05:14.552Z,9.00
2023-11-08T11:07:45.572Z,9.70
2023-11-08T11:10:17.258Z,18.23
2023-11-08T11:13:13.856Z,22.17
2023-11-08T11:15:51.555Z,20.73
2023-11-08T11:18:24.707Z,12.57
2023-11-08T11:20:58.706Z,11.50
2023-11-08T11:23:43.655Z,12.13
2023-11-08T11:26:13.820Z,10.05
2023-11-08T11:28:57.752Z,9.52
2023-11-08T11:31:43.143Z,11.02
2023-11-08T11:34:28.926Z,11.93
2023-11-08T11:37:08.470Z,13.77
2023-11-08T11:39:51.044Z,13.90
2023-11-08T11:42:26.170Z,9.05
2023-11-08T11:44:58.997Z,9.32
2023-11-08T11:47:32.284Z,10.13
2023-11-08T11:50:06.040Z,9.50
2023-11-08T11:52:37.724Z,9.52
2023-11-08T11:55:10.851Z,14.13
2023-11-08T11:57:41.630Z,14.10
2023-11-08T12:00:16.014Z,14.88
2023-11-08T12:02:51.743Z,14.85
2023-11-08T12:05:25.628Z,12.90
2023-11-08T12:07:56.743Z,13.60
2023-11-08T12:10:28.681Z,14.32
2023-11-08T12:13:01.629Z,12.90
2023-11-08T12:15:34.229Z,10.30
2023-11-08T12:18:07.495Z,14.77
2023-11-08T12:20:44.417Z,41.17
2023-11-08T12:23:14.614Z,25.10
2023-11-08T12:25:45.197Z,31.73
2023-11-08T12:28:15.299Z,13.70
2023-11-08T12:30:47.997Z,17.48
2023-11-08T12:33:18.051Z,16.17
2023-11-08T12:35:48.099Z,14.85
2023-11-08T12:38:19.667Z,13.68
2023-11-08T12:41:07.051Z,11.55
2023-11-08T12:43:59.070Z,12.02
2023-11-08T12:46:40.096Z,11.00
2023-11-08T12:49:20.591Z,10.55
2023-11-08T12:51:50.706Z,9.10
2023-11-08T12:54:21.386Z,9.85
2023-11-08T12:56:54.782Z,9.38
2023-11-08T12:59:25.868Z,8.75
2023-11-08T13:02:07.984Z,9.90
2023-11-08T13:04:42.233Z,8.35
2023-11-08T13:07:15.086Z,8.75
2023-11-08T13:09:46.030Z,7.30
2023-11-08T13:12:16.249Z,7.70
2023-11-08T13:14:50.063Z,7.93
2023-11-08T13:17:23.367Z,7.47
2023-11-08T13:19:54.650Z,7.03
2023-11-08T13:22:29.783Z,7.13
2023-11-08T13:25:03.135Z,7.32
2023-11-08T13:27:33.967Z,9.90
2023-11-08T13:30:05.978Z,7.13
2023-11-08T13:32:36.865Z,12.68
2023-11-08T13:35:14.004Z,9.70
2023-11-08T13:37:44.833Z,8.52
2023-11-08T13:40:18.146Z,8.40
2023-11-08T13:42:48.090Z,8.15
2023-11-08T13:45:19.294Z,9.18
2023-11-08T13:47:49.831Z,10.75
2023-11-08T13:50:21.125Z,10.20
2023-11-08T13:52:54.204Z,9.98
2023-11-08T13:55:26.935Z,10.10
2023-11-08T13:57:59.964Z,10.88
2023-11-08T14:00:31.142Z,11.93
2023-11-08T14:03:01.381Z,12.35
2023-11-08T14:05:34.040Z,11.52
2023-11-08T14:08:04.601Z,12.48
2023-11-08T14:10:35.273Z,11.82
2023-11-08T14:13:06.146Z,9.10
2023-11-08T14:15:36.263Z,9.60
2023-11-08T14:18:12.261Z,9.30
2023-11-08T14:20:45.067Z,8.15
2023-11-08T14:23:17.374Z,7.97
2023-11-08T14:25:50.730Z,7.45
2023-11-08T14:28:20.989Z,6.88
2023-11-08T14:30:52.353Z,6.95
2023-11-08T14:33:22.689Z,6.72
2023-11-08T14:35:53.377Z,5.57
2023-11-08T14:38:23.811Z,6.70
2023-11-08T14:40:54.283Z,6.60
2023-11-08T14:43:28.307Z,6.63
2023-11-08T14:45:58.868Z,6.63
2023-11-08T14:48:29.179Z,6.43
2023-11-08T14:50:59.140Z,7.40
2023-11-08T14:53:29.493Z,7.60
2023-11-08T14:55:59.520Z,6.85
2023-11-08T14:58:29.992Z,6.53
2023-11-08T15:01:00.751Z,7.25
2023-11-08T15:03:31.278Z,6.93
2023-11-08T15:06:05.042Z,7.10
2023-11-08T15:09:50.732Z,7.60
2023-11-08T15:11:28.779Z,8.70
2023-11-08T15:14:03.345Z,8.57
2023-11-08T15:16:36.236Z,8.18
2023-11-08T15:19:15.719Z,7.75
2023-11-08T15:21:49.642Z,6.55
2023-11-08T15:24:19.615Z,7.85
2023-11-08T15:26:51.832Z,6.45
2023-11-08T15:29:23.184Z,5.93
2023-11-08T15:31:53.295Z,5.60
2023-11-08T15:34:26.332Z,6.22
2023-11-08T15:36:59.385Z,6.05
2023-11-08T15:39:29.520Z,6.07
2023-11-08T15:41:59.497Z,6.68
2023-11-08T15:44:29.389Z,7.22
2023-11-08T15:47:04.312Z,6.75
2023-11-08T15:49:35.143Z,6.50
2023-11-08T15:52:05.278Z,6.50
2023-11-08T15:54:38.053Z,6.22
2023-11-08T15:57:08.001Z,6.03
2023-11-08T15:59:38.205Z,5.47
2023-11-08T16:02:08.590Z,5.28
2023-11-08T16:04:39.564Z,5.65
2023-11-08T16:07:12.643Z,4.45
2023-11-08T16:09:47.643Z,5.03
2023-11-08T16:12:18.409Z,4.68
2023-11-08T16:14:48.990Z,4.40
2023-11-08T16:17:19.178Z,4.65
2023-11-08T16:19:52.201Z,4.20
2023-11-08T16:22:22.674Z,5.70
2023-11-08T16:25:08.690Z,5.63
2023-11-08T16:27:47.427Z,8.00
2023-11-08T16:30:17.986Z,8.55
2023-11-08T16:33:12.139Z,6.93
2023-11-08T16:35:42.215Z,7.00
2023-11-08T16:38:12.510Z,6.22
2023-11-08T16:40:42.670Z,5.30
2023-11-08T16:43:15.516Z,5.30
2023-11-08T16:45:45.387Z,5.65
2023-11-08T16:48:15.500Z,5.50
2023-11-08T16:50:51.404Z,6.05
2023-11-08T16:53:21.457Z,6.85
2023-11-08T16:55:51.364Z,6.63
2023-11-08T16:58:21.238Z,6.38
2023-11-08T17:00:51.198Z,7.03
2023-11-08T17:03:21.837Z,7.28
2023-11-08T17:05:52.740Z,6.45
2023-11-08T17:08:22.993Z,6.57
2023-11-08T17:10:53.299Z,5.93
2023-11-08T17:13:24.515Z,5.75
2023-11-08T17:16:03.329Z,5.93
2023-11-08T17:18:34.022Z,5.85
2023-11-08T17:21:09.046Z,5.82
2023-11-08T17:23:42.011Z,5.55
2023-11-08T17:26:17.469Z,6.28
2023-11-08T17:28:54.042Z,5.88
2023-11-08T17:31:31.520Z,5.22
2023-11-08T17:34:01.601Z,5.78
2023-11-08T17:36:32.026Z,6.65
2023-11-08T17:39:07.112Z,6.05
2023-11-08T17:41:37.633Z,6.68
2023-11-08T17:44:07.912Z,5.75
2023-11-08T17:46:41.304Z,5.45
2023-11-08T17:49:11.256Z,5.30
2023-11-08T17:51:41.586Z,6.32
2023-11-08T17:54:26.805Z,6.45
2023-11-08T17:56:57.262Z,5.45
2023-11-08T17:59:27.241Z,6.18
2023-11-08T18:01:59.678Z,6.43
2023-11-08T18:04:32.284Z,5.28
2023-11-08T18:07:02.501Z,4.70
2023-11-08T18:09:35.440Z,4.40
2023-11-08T18:12:09.069Z,4.68
2023-11-08T18:14:41.706Z,5.25
2023-11-08T18:17:14.819Z,4.78
2023-11-08T18:19:45.395Z,4.80
2023-11-08T18:22:15.888Z,5.45
2023-11-08T18:24:46.912Z,5.78
2023-11-08T18:27:16.905Z,6.50
2023-11-08T18:29:49.871Z,6.53
2023-11-08T18:32:20.016Z,6.40
2023-11-08T18:34:50.885Z,7.45
2023-11-08T18:37:21.232Z,7.13
2023-11-08T18:39:51.256Z,8.05
2023-11-08T18:42:21.778Z,7.15
2023-11-08T18:44:51.702Z,7.22
2023-11-08T18:47:21.364Z,7.30
2023-11-08T18:49:53.040Z,7.63
2023-11-08T18:52:22.922Z,6.78
2023-11-08T18:54:53.521Z,6.00
2023-11-08T18:57:24.025Z,7.93
2023-11-08T18:59:56.664Z,8.23
2023-11-08T19:02:26.642Z,9.15
2023-11-08T19:04:56.447Z,7.65
2023-11-08T19:07:26.486Z,7.75
2023-11-08T19:09:57.470Z,6.70
2023-11-08T19:12:28.203Z,6.63
2023-11-08T19:15:00.924Z,6.57
2023-11-08T19:17:31.604Z,6.15
2023-11-08T19:20:02.067Z,6.80
2023-11-08T19:22:32.546Z,7.00
2023-11-08T19:25:03.292Z,6.57
2023-11-08T19:27:35.179Z,6.30
2023-11-08T19:30:06.059Z,6.55
2023-11-08T19:32:37.088Z,6.90
2023-11-08T19:35:08.011Z,6.93
2023-11-08T19:37:39.217Z,6.53
2023-11-08T19:40:12.634Z,6.75
2023-11-08T19:42:42.941Z,5.85
2023-11-08T19:45:13.224Z,6.43
2023-11-08T19:47:43.274Z,8.23
2023-11-08T19:50:15.999Z,8.85
2023-11-08T19:52:48.338Z,7.70
2023-11-08T19:55:18.399Z,8.05
2023-11-08T19:57:48.734Z,7.82
2023-11-08T20:00:18.586Z,7.80
2023-11-08T20:02:48.993Z,7.57
2023-11-08T20:05:18.985Z,8.55
2023-11-08T20:07:51.243Z,9.30
2023-11-08T20:10:21.327Z,9.38
2023-11-08T20:12:51.424Z,9.77
2023-11-08T20:15:21.778Z,9.95
2023-11-08T20:17:51.895Z,10.02
2023-11-08T20:20:22.147Z,10.48
2023-11-08T20:22:54.020Z,10.65
2023-11-08T20:25:24.863Z,10.88
2023-11-08T20:27:55.566Z,10.63
2023-11-08T20:30:26.247Z,11.40
2023-11-08T20:32:56.253Z,11.65
2023-11-08T20:35:26.390Z,12.85
2023-11-08T20:37:58.962Z,12.98
2023-11-08T20:40:28.883Z,14.05
2023-11-08T20:43:01.434Z,14.63
2023-11-08T20:45:31.638Z,15.20
2023-11-08T20:48:01.422Z,16.27
2023-11-08T20:50:31.878Z,15.93
2023-11-08T20:53:02.122Z,15.57
2023-11-08T20:55:32.160Z,13.88
2023-11-08T20:58:03.627Z,14.77
2023-11-08T21:00:33.518Z,14.45
2023-11-08T21:03:05.040Z,14.48
2023-11-08T21:05:34.926Z,14.57
2023-11-08T21:08:04.826Z,13.85
2023-11-08T21:10:34.544Z,14.55
2023-11-08T21:13:04.453Z,14.73
2023-11-08T21:15:36.180Z,14.93
2023-11-08T21:18:06.677Z,15.25
2023-11-08T21:20:36.307Z,16.02
2023-11-08T21:23:06.523Z,14.80
2023-11-08T21:25:39.407Z,15.73
2023-11-08T21:28:09.373Z,15.50
2023-11-08T21:30:39.898Z,15.25
2023-11-08T21:33:10.221Z,14.95
2023-11-08T21:35:40.839Z,14.57
2023-11-08T21:38:10.758Z,14.27
2023-11-08T21:40:40.621Z,13.18
2023-11-08T21:43:10.841Z,14.65
2023-11-08T21:45:42.441Z,13.20
2023-11-08T21:48:12.358Z,13.65
2023-11-08T21:50:42.141Z,13.02
2023-11-08T21:53:12.665Z,14.88
2023-11-08T21:55:45.815Z,13.13
2023-11-08T21:58:16.360Z,12.95
2023-11-08T22:00:47.563Z,13.57
2023-11-08T22:03:18.134Z,13.65
2023-11-08T22:05:50.912Z,12.77
2023-11-08T22:08:21.180Z,13.00
2023-11-08T22:10:51.124Z,13.00
2023-11-08T22:13:21.217Z,15.32
2023-11-08T22:15:51.777Z,15.50
2023-11-08T22:18:21.595Z,15.77
2023-11-08T22:20:51.227Z,15.98
2023-11-08T22:23:24.919Z,16.58
2023-11-08T22:25:54.856Z,17.80
2023-11-08T22:28:24.921Z,17.85
2023-11-08T22:30:56.665Z,15.48
2023-11-08T22:33:26.689Z,17.25
2023-11-08T22:35:57.466Z,15.75
2023-11-08T22:38:27.847Z,15.52
2023-11-08T22:40:58.282Z,16.92
2023-11-08T22:43:28.268Z,19.88
2023-11-08T22:45:58.278Z,20.00
2023-11-08T22:48:30.255Z,16.95
2023-11-08T22:51:00.868Z,15.25
2023-11-08T22:53:32.558Z,15.05
2023-11-08T22:56:03.688Z,13.57
2023-11-08T22:58:35.112Z,14.32
2023-11-08T23:01:05.357Z,12.98
2023-11-08T23:03:35.368Z,12.80
2023-11-08T23:06:08.448Z,12.88
2023-11-08T23:08:38.825Z,12.13
2023-11-08T23:11:09.818Z,11.57
2023-11-08T23:13:40.128Z,10.80
2023-11-08T23:16:10.336Z,12.07
2023-11-08T23:18:41.327Z,14.30
2023-11-08T23:21:11.426Z,14.10
2023-11-08T23:23:42.586Z,12.98
2023-11-08T23:26:12.432Z,12.88
2023-11-08T23:28:42.578Z,11.77
2023-11-08T23:31:13.046Z,11.60
2023-11-08T23:33:43.121Z,11.35
2023-11-08T23:36:16.474Z,11.80
2023-11-08T23:38:46.812Z,12.25
2023-11-08T23:41:16.807Z,13.20
2023-11-08T23:43:49.306Z,12.77
2023-11-08T23:46:22.638Z,12.13
2023-11-08T23:48:53.163Z,13.15
2023-11-08T23:51:23.428Z,12.98
2023-11-08T23:53:53.448Z,14.43
2023-11-08T23:56:25.023Z,13.77
2023-11-08T23:58:59.150Z,15.57
